Charlottesville Albemarle Airport Charlottesville US
ICAO: KCHO
IATA: CHO
Category: Medium
Scheduled Services: Yes

Elevation: 639 ft
TransAlt. 18000 ft.

Airport Communications:
POTOMAC APP/DEP:132.85
ASOS:118.425
ATIS:118.425
CTAF:124.5
GND:121.9
LEESBURG RDO:122.2
TWR:124.5
UNICOM:122.95

KCHO Zoom In..

If you have problems with the map follow the link
https://www.worldairports.se/pages/airport.php?
ICAO=KCHO

Runways:

(A) RW 03 length 6801 ft width 150 ft
ILS 111.70 / hdg 30

(B) RW 21 length 6801 ft width 150 ft
---- / hdg 210

Location; KCHO
Day. 21 / Time. 17.53 Zulu
* Altimeter: 30.17
* Temperature: 12° c. 53.6°f.
* Wind from: 340° Speed 09 kn with Gusts up to 17 kn.
Dewpoint: -02° c.
Visibility: 10 Statute Miles.
Clouds: Scattered 5500 ft.

KCHO 211753Z 34009G17KT 10SM SCT055 12/M02 A3017 RMK AO2 SLP215 T01171022 10122 20083 50002


Wind From 340°
Speed 09 kn.

 
 
jpsmedia.com for Web Design worldairports.se 2018   terms of use